GEC280F EPGD-EDDF
Flight info
| Callsign | GEC280F |
|---|---|
| Flight time | N/A |
| Altitude | 34000 |
| Route | DEXIR T671 VEKON L730 UNVOX DCT ALUKA DCT KOSIX DCT NIMAB T171 MAIXE/N0483F300 T171 LASTO T178 ROBEL/N0445F240 T178 KERAX KERAX5A |
| Aircraft | MD11/H-SDE1E2E3FGHIJ2J3J4J5M1RWXY/LB1D1 |
Departure
| Time | 2026-05-06 20:02 |
|---|---|
| Airport | Gdańsk Lech Wałęsa Airport (EPGD) |
Arrival
| Time | N/A |
|---|---|
| Airport | Frankfurt Main Airport (EDDF) |
| Time | Latitude | Longitude | Altitude | Speed | Heading |
|---|---|---|---|---|---|
| 2026-05-06 19:36 | 54.37903 | 18.47187 | 484 ft | 0 kts | 22° |
| 2026-05-06 19:52 | 54.37890 | 18.47179 | 475 ft | 3 kts | 22° |
| 2026-05-06 19:52 | 54.37869 | 18.47164 | 479 ft | 3 kts | 22° |
| 2026-05-06 19:52 | 54.37847 | 18.47149 | 475 ft | 3 kts | 22° |
| 2026-05-06 19:52 | 54.37826 | 18.47134 | 484 ft | 3 kts | 17° |
| 2026-05-06 19:53 | 54.37806 | 18.47131 | 484 ft | 0 kts | 292° |
| 2026-05-06 19:55 | 54.37806 | 18.47130 | 485 ft | 1 kts | 292° |
| 2026-05-06 19:56 | 54.37811 | 18.47111 | 478 ft | 3 kts | 293° |
| 2026-05-06 19:56 | 54.37823 | 18.47063 | 478 ft | 6 kts | 293° |
| 2026-05-06 19:56 | 54.37840 | 18.46994 | 481 ft | 7 kts | 293° |
| 2026-05-06 19:56 | 54.37860 | 18.46913 | 478 ft | 8 kts | 293° |
| 2026-05-06 19:57 | 54.37884 | 18.46818 | 476 ft | 9 kts | 294° |
| 2026-05-06 19:57 | 54.37912 | 18.46710 | 472 ft | 11 kts | 294° |
| 2026-05-06 19:57 | 54.37943 | 18.46588 | 475 ft | 11 kts | 293° |
| 2026-05-06 19:57 | 54.37975 | 18.46462 | 471 ft | 12 kts | 293° |
| 2026-05-06 19:58 | 54.38008 | 18.46332 | 470 ft | 12 kts | 293° |
| 2026-05-06 19:58 | 54.38041 | 18.46200 | 474 ft | 12 kts | 293° |
| 2026-05-06 19:58 | 54.38074 | 18.46063 | 474 ft | 13 kts | 292° |
| 2026-05-06 19:58 | 54.38108 | 18.45922 | 471 ft | 13 kts | 292° |
| 2026-05-06 19:59 | 54.38142 | 18.45777 | 470 ft | 13 kts | 290° |
| 2026-05-06 19:59 | 54.38120 | 18.45657 | 471 ft | 10 kts | 220° |
| 2026-05-06 19:59 | 54.38057 | 18.45594 | 471 ft | 11 kts | 222° |
| 2026-05-06 19:59 | 54.38049 | 18.45467 | 469 ft | 12 kts | 293° |
| 2026-05-06 20:00 | 54.38113 | 18.45355 | 469 ft | 14 kts | 317° |
| 2026-05-06 20:00 | 54.38139 | 18.45256 | 468 ft | 2 kts | 256° |
| 2026-05-06 20:00 | 54.38128 | 18.45239 | 468 ft | 3 kts | 218° |
| 2026-05-06 20:00 | 54.38109 | 18.45237 | 468 ft | 2 kts | 170° |
| 2026-05-06 20:01 | 54.38098 | 18.45254 | 467 ft | 2 kts | 132° |
| 2026-05-06 20:01 | 54.38071 | 18.45360 | 469 ft | 38 kts | 114° |
| 2026-05-06 20:01 | 54.37853 | 18.46251 | 477 ft | 123 kts | 112° |
| 2026-05-06 20:01 | 54.37427 | 18.47982 | 519 ft | 184 kts | 108° |
| 2026-05-06 20:02 | 54.36871 | 18.50055 | 1181 ft | 198 kts | 110° |
| 2026-05-06 20:02 | 54.36235 | 18.52335 | 1765 ft | 226 kts | 111° |
| 2026-05-06 20:02 | 54.35581 | 18.54541 | 3321 ft | 201 kts | 117° |
| 2026-05-06 20:02 | 54.34882 | 18.56955 | 3341 ft | 259 kts | 116° |
| 2026-05-06 20:03 | 54.34060 | 18.60073 | 3253 ft | 301 kts | 114° |
| 2026-05-06 20:03 | 54.33238 | 18.63410 | 3919 ft | 290 kts | 114° |
| 2026-05-06 20:03 | 54.32381 | 18.66178 | 4854 ft | 237 kts | 138° |
| 2026-05-06 20:03 | 54.31035 | 18.67518 | 5486 ft | 227 kts | 177° |
| 2026-05-06 20:04 | 54.29509 | 18.67115 | 6369 ft | 224 kts | 208° |
| 2026-05-06 20:04 | 54.28119 | 18.65781 | 7013 ft | 237 kts | 213° |
| 2026-05-06 20:04 | 54.26714 | 18.64166 | 7678 ft | 251 kts | 221° |
| 2026-05-06 20:04 | 54.25523 | 18.61801 | 8112 ft | 277 kts | 240° |
| 2026-05-06 20:05 | 54.24948 | 18.58484 | 8531 ft | 309 kts | 262° |
| 2026-05-06 20:05 | 54.24945 | 18.54619 | 8905 ft | 341 kts | 270° |
| 2026-05-06 20:05 | 54.25117 | 18.50663 | 9054 ft | 323 kts | 271° |
| 2026-05-06 20:05 | 54.25319 | 18.46941 | 9005 ft | 304 kts | 271° |
| 2026-05-06 20:06 | 54.25509 | 18.43449 | 9002 ft | 287 kts | 271° |
| 2026-05-06 20:06 | 54.25671 | 18.40162 | 8995 ft | 271 kts | 270° |
| 2026-05-06 20:06 | 54.25813 | 18.36964 | 8910 ft | 269 kts | 270° |
| 2026-05-06 20:06 | 54.25942 | 18.33789 | 9286 ft | 265 kts | 269° |
| 2026-05-06 20:07 | 54.26061 | 18.30627 | 10067 ft | 273 kts | 269° |
| 2026-05-06 20:07 | 54.26178 | 18.27208 | 10197 ft | 302 kts | 269° |
| 2026-05-06 20:07 | 54.26304 | 18.23459 | 10362 ft | 328 kts | 270° |
| 2026-05-06 20:07 | 54.26416 | 18.19524 | 11067 ft | 333 kts | 267° |
| 2026-05-06 20:08 | 54.26339 | 18.15561 | 11878 ft | 335 kts | 263° |
| 2026-05-06 20:08 | 54.26158 | 18.11563 | 12677 ft | 339 kts | 262° |
| 2026-05-06 20:08 | 54.25943 | 18.07517 | 13454 ft | 343 kts | 262° |
| 2026-05-06 20:08 | 54.25718 | 18.03425 | 14144 ft | 348 kts | 262° |
| 2026-05-06 20:09 | 54.25490 | 17.99294 | 14816 ft | 351 kts | 262° |
| 2026-05-06 20:09 | 54.25262 | 17.95114 | 15449 ft | 355 kts | 262° |
| 2026-05-06 20:09 | 54.25032 | 17.90880 | 16062 ft | 359 kts | 263° |
| 2026-05-06 20:09 | 54.24799 | 17.86606 | 16685 ft | 363 kts | 263° |
| 2026-05-06 20:10 | 54.24564 | 17.82283 | 17292 ft | 367 kts | 263° |
| 2026-05-06 20:10 | 54.24325 | 17.77922 | 17883 ft | 371 kts | 263° |
| 2026-05-06 20:10 | 54.24082 | 17.73512 | 18438 ft | 374 kts | 263° |
| 2026-05-06 20:10 | 54.23836 | 17.69073 | 18968 ft | 376 kts | 262° |
| 2026-05-06 20:11 | 54.23587 | 17.64601 | 19495 ft | 379 kts | 262° |
| 2026-05-06 20:11 | 54.23335 | 17.60110 | 20007 ft | 381 kts | 262° |